Flight Track Log - Related Links

Times and Time Zones

All times are in EDT time to prevent confusion due to time zone crossing. See the AFL150 flight status page for this flight to view local times or setup timezone preferences in your user account.

Time Position Orientation Groundspeed Altitude Reporting Facility
EDT Latitude Longitude Course Direction KTS MPH feet Rate Location/Type
Thu 06:30:00 AM 56.1881 37.1343 319° Northwest  Level FlightAware Approximate
Thu 06:31:00 AM 56.2802 36.9873 318° Northwest  Level FlightAware Approximate
Thu 06:32:00 AM 56.3720 36.8396 318° Northwest  Level FlightAware Approximate
Thu 06:33:00 AM 56.4636 36.6911 318° Northwest  Level FlightAware Approximate
Thu 06:34:00 AM 56.5551 36.5420 318° Northwest  Level FlightAware Approximate
Thu 06:35:00 AM 56.6464 36.3921 318° Northwest  Level FlightAware Approximate
Thu 06:36:00 AM 56.7376 36.2415 318° Northwest  Level FlightAware Approximate
Thu 06:37:00 AM 56.8285 36.0902 318° Northwest  Level FlightAware Approximate
Thu 06:38:00 AM 56.9193 35.9381 318° Northwest  Level FlightAware Approximate
Thu 06:39:00 AM 57.0098 35.7853 317° Northwest  Level FlightAware Approximate
Thu 06:40:00 AM 57.1002 35.6317 317° Northwest  Level FlightAware Approximate
Thu 06:41:00 AM 57.1904 35.4774 317° Northwest  Level FlightAware Approximate
Thu 06:42:00 AM 57.2804 35.3224 317° Northwest  Level FlightAware Approximate
Thu 06:43:00 AM 57.3703 35.1665 317° Northwest  Level FlightAware Approximate
Thu 06:44:00 AM 57.4599 35.0100 317° Northwest  Level FlightAware Approximate
Thu 06:45:00 AM 57.5493 34.8526 317° Northwest  Level FlightAware Approximate
Thu 06:46:00 AM 57.6385 34.6945 317° Northwest  Level FlightAware Approximate
Thu 06:47:00 AM 57.6739 34.6260 315° West  Level FlightAware Approximate
Thu 06:48:00 AM 57.7606 34.4625 315° West  Level FlightAware Approximate
Thu 06:49:00 AM 57.8470 34.2982 315° West  Level FlightAware Approximate
Thu 06:50:00 AM 57.9333 34.1330 315° West  Level FlightAware Approximate
Thu 06:51:00 AM 58.0193 33.9671 314° West  Level FlightAware Approximate
Thu 06:52:00 AM 58.1052 33.8004 314° West  Level FlightAware Approximate
Thu 06:53:00 AM 58.1908 33.6329 314° West  Level FlightAware Approximate
Thu 06:54:00 AM 58.2762 33.4646 314° West  Level FlightAware Approximate
Thu 06:55:00 AM 58.3613 33.2955 314° West  Level FlightAware Approximate
Thu 06:56:00 AM 58.4463 33.1255 314° West  Level FlightAware Approximate
Thu 06:57:00 AM 58.5310 32.9548 314° West  Level FlightAware Approximate
Thu 06:58:00 AM 58.6155 32.7831 313° West  Level FlightAware Approximate
Thu 06:59:00 AM 58.6997 32.6107 313° West  Level FlightAware Approximate
Thu 07:00:00 AM 58.7838 32.4375 313° West  Level FlightAware Approximate
Thu 07:01:00 AM 58.8676 32.2634 313° West  Level FlightAware Approximate
Thu 07:02:00 AM 58.9511 32.0884 313° West  Level FlightAware Approximate
Thu 07:03:00 AM 59.0344 31.9126 313° West  Level FlightAware Approximate
Thu 07:04:00 AM 59.1175 31.7360 313° West  Level FlightAware Approximate
Thu 07:05:00 AM 59.2004 31.5585 312° West  Level FlightAware Approximate
Thu 07:06:00 AM 59.2830 31.3801 312° West  Level FlightAware Approximate
Thu 07:07:00 AM 59.3653 31.2009 312° West  Level FlightAware Approximate
Thu 07:08:00 AM 59.4474 31.0208 312° West  Level FlightAware Approximate
Thu 07:09:00 AM 59.5293 30.8398 312° West  Level FlightAware Approximate
Thu 07:10:00 AM 59.6109 30.6579 312° West  Level FlightAware Approximate
Thu 07:11:00 AM 59.6922 30.4752 311° West  Level FlightAware Approximate
Thu 07:12:00 AM 59.7733 30.2916 311° West  Level FlightAware Approximate
Thu 07:13:00 AM 59.8542 30.1070 311° West  Level FlightAware Approximate
Thu 07:14:00 AM 59.9347 29.9216 311° West  Level FlightAware Approximate
Thu 07:15:00 AM 60.0151 29.7353 311° West  Level FlightAware Approximate
Thu 07:16:00 AM 60.0951 29.5481 311° West  Level FlightAware Approximate
Thu 07:17:00 AM 60.1749 29.3599 311° West  Level FlightAware Approximate
Thu 07:18:00 AM 60.2544 29.1709 310° West  Level FlightAware Approximate
Thu 07:19:00 AM 60.3337 28.9809 310° West  Level FlightAware Approximate
Thu 07:20:00 AM 60.4127 28.7900 310° West  Level FlightAware Approximate
Thu 07:21:00 AM 60.4914 28.5982 310° West  Level FlightAware Approximate
Thu 07:22:00 AM 60.5698 28.4055 310° West  Level FlightAware Approximate
Thu 07:23:00 AM 60.6479 28.2118 310° West  Level FlightAware Approximate
Thu 07:24:00 AM 60.7258 28.0171 309° West  Level FlightAware Approximate
Thu 07:25:00 AM 60.8034 27.8216 309° West  Level FlightAware Approximate
Thu 07:26:00 AM 60.8807 27.6250 309° West  Level FlightAware Approximate
Thu 07:27:00 AM 60.9577 27.4276 309° West  Level FlightAware Approximate
Thu 07:28:00 AM 61.0344 27.2291 309° West  Level FlightAware Approximate
Thu 07:29:00 AM 61.1109 27.0297 308° West  Level FlightAware Approximate
Thu 07:30:00 AM 61.1870 26.8294 308° West  Level FlightAware Approximate
Thu 07:31:00 AM 61.2628 26.6280 308° West  Level FlightAware Approximate
Thu 07:31:59 AM 59.9759 26.2505 297° West 484 557 34,000  Level FlightAware ADS-B
Thu 07:32:00 AM 61.3384 26.4258 308° West  Level FlightAware Approximate
Thu 07:32:37 AM 60.0176 26.1069 304° West 478 550 34,000  Level FlightAware ADS-B
Thu 07:33:19 AM 60.0611 25.9673 298° West 485 558 34,000  Level FlightAware ADS-B
Thu 07:34:19 AM 60.1299 25.7120 299° West 486 559 34,000  Level FlightAware ADS-B
Thu 07:34:54 AM 60.1686 25.5727 299° West 488 562 34,000  Level FlightAware ADS-B
Thu 07:35:40 AM 60.2168 25.3982 299° West 489 563 34,000  Level FlightAware ADS-B
Thu 07:36:20 AM 60.2622 25.2334 300° West 488 562 34,000  Level FlightAware ADS-B
Thu 07:36:59 AM 60.3095 25.0838 305° West 481 554 34,000  Level FlightAware ADS-B
Thu 07:37:39 AM 60.3584 24.9651 314° West 473 544 34,000  Level FlightAware ADS-B
Thu 07:38:19 AM 60.4256 24.8398 322° Northwest 466 536 34,000  Level FlightAware ADS-B
Thu 07:38:59 AM 60.4974 24.7392 329° Northwest 459 528 34,000  Level FlightAware ADS-B
Thu 07:39:34 AM 60.5659 24.6637 332° Northwest 459 528 34,000  Level FlightAware ADS-B
Thu 07:40:39 AM 60.6848 24.5209 329° Northwest 461 531 34,000  Level FlightAware ADS-B
Thu 07:41:19 AM 60.7541 24.4327 328° Northwest 461 531 34,000  Level FlightAware ADS-B
Thu 07:41:58 AM 60.8029 24.3704 328° Northwest 461 531 34,000  Level FlightAware ADS-B
Thu 07:42:33 AM 60.8887 24.2608 328° Northwest 461 531 34,000  Level FlightAware ADS-B
Thu 07:43:18 AM 60.9620 24.1666 328° Northwest 461 531 34,000  Level FlightAware ADS-B
Thu 07:49:04 AM 61.5897 23.3886 334° Northwest 458 527 34,000  Level FlightAware ADS-B
Thu 07:49:39 AM 61.6691 23.3047 333° Northwest 460 529 34,000  Level FlightAware ADS-B
Thu 08:20:13 AM 64.6392 17.8023 316° Northwest 460 529 34,000  Level FlightAware ADS-B
Thu 08:20:52 AM 64.7027 17.6587 316° Northwest 462 532 34,000  Level FlightAware ADS-B
Thu 08:21:49 AM 64.7702 17.5045 316° Northwest 462 532 34,000  Level FlightAware ADS-B
Thu 08:22:33 AM 64.8559 17.3078 316° Northwest 463 533 34,000  Level FlightAware ADS-B
Thu 08:23:13 AM 64.9136 17.1742 315° West 463 533 34,000  Level FlightAware ADS-B
Thu 08:23:52 AM 64.9753 17.0302 315° West 462 532 34,000  Level FlightAware ADS-B
Thu 08:24:32 AM 65.0311 16.8994 315° West 462 532 34,000  Level FlightAware ADS-B
Thu 08:25:12 AM 65.0937 16.7514 315° West 462 532 34,000  Level FlightAware ADS-B
Thu 08:25:52 AM 65.1469 16.6246 315° West 462 532 34,000  Level FlightAware ADS-B
Thu 08:26:32 AM 65.2159 16.4596 315° West 463 533 34,000  Level FlightAware ADS-B
Thu 08:27:09 AM 65.2726 16.3230 315° West 463 533 34,000  Level FlightAware ADS-B
Thu 08:27:53 AM 65.3373 16.1656 315° West 464 534 34,000  Level FlightAware ADS-B
Thu 08:28:33 AM 65.3721 16.0807 314° West 464 534 34,000  Level FlightAware ADS-B
Thu 08:29:09 AM 65.4519 15.8843 314° West 466 536 34,000  Level FlightAware ADS-B
Thu 08:30:13 AM 65.5463 15.6499 314° West 466 536 34,000  Level FlightAware ADS-B
Thu 08:30:51 AM 65.6003 15.5148 314° West 465 535 34,000  Level FlightAware ADS-B
Thu 08:33:00 AM 65.6759 14.9001 287° West  Level Estimated
Thu 08:34:00 AM 65.7103 14.6131 287° West  Level Estimated
Thu 08:35:00 AM 65.7441 14.3252 286° West  Level Estimated
Thu 08:36:00 AM 65.7773 14.0366 286° West  Level Estimated
Thu 08:37:00 AM 65.8100 13.7473 286° West  Level Estimated
Thu 08:38:00 AM 65.8422 13.4572 285° West  Level Estimated
Thu 08:39:00 AM 65.8738 13.1665 285° West  Level Estimated
Thu 08:40:00 AM 65.9049 12.8750 285° West  Level Estimated
Thu 08:41:00 AM 65.9354 12.5828 284° West  Level Estimated
Thu 08:42:00 AM 65.9653 12.2899 284° West  Level Estimated
Thu 08:43:00 AM 65.9947 11.9963 284° West  Level Estimated
Thu 08:44:00 AM 66.0235 11.7021 284° West  Level Estimated
Thu 08:45:00 AM 66.0518 11.4072 283° West  Level Estimated
Thu 08:46:00 AM 66.0795 11.1117 283° West  Level Estimated
Thu 08:47:00 AM 66.1067 10.8155 283° West  Level Estimated
Thu 08:48:00 AM 66.1332 10.5187 283° West  Level Estimated
Thu 08:49:00 AM 66.1592 10.2212 282° West  Level Estimated
Thu 08:50:00 AM 66.1846 9.9232 282° West  Level Estimated
Thu 08:51:00 AM 66.2095 9.6246 282° West  Level Estimated
Thu 08:52:00 AM 66.2338 9.3254 282° West  Level Estimated
Thu 08:53:00 AM 66.2575 9.0256 281° West  Level Estimated
Thu 08:54:00 AM 66.2806 8.7253 281° West  Level Estimated
Thu 08:55:00 AM 66.3031 8.4244 281° West  Level Estimated
Thu 08:56:00 AM 66.3251 8.1230 280° West  Level Estimated
Thu 08:57:00 AM 66.3465 7.8211 280° West  Level Estimated
Thu 08:58:00 AM 66.3673 7.5186 280° West  Level Estimated
Thu 08:59:00 AM 66.3875 7.2157 280° West  Level Estimated
Thu 09:00:00 AM 66.4071 6.9123 279° West  Level Estimated
Thu 09:01:00 AM 66.4261 6.6084 279° West  Level Estimated
Thu 09:02:00 AM 66.4445 6.3040 279° West  Level Estimated
Thu 09:03:00 AM 66.4624 5.9993 278° West  Level Estimated
Thu 09:04:00 AM 66.4796 5.6941 278° West  Level Estimated
Thu 09:05:00 AM 66.4963 5.3884 278° West  Level Estimated
Thu 09:06:00 AM 66.5304 5.0917 286° West  Level FlightAware Approximate
Thu 09:07:00 AM 66.5639 4.7942 286° West  Level FlightAware Approximate
Thu 09:08:00 AM 66.5968 4.4960 286° West  Level FlightAware Approximate
Thu 09:09:00 AM 66.6292 4.1969 285° West  Level FlightAware Approximate
Thu 09:10:00 AM 66.6611 3.8970 285° West  Level FlightAware Approximate
Thu 09:11:00 AM 66.6923 3.5964 285° West  Level FlightAware Approximate
Thu 09:12:00 AM 66.7230 3.2950 285° West  Level FlightAware Approximate
Thu 09:13:00 AM 66.7531 2.9929 284° West  Level FlightAware Approximate
Thu 09:14:00 AM 66.7826 2.6900 284° West  Level FlightAware Approximate
Thu 09:15:00 AM 66.8115 2.3864 284° West  Level FlightAware Approximate
Thu 09:16:00 AM 66.8399 2.0821 283° West  Level FlightAware Approximate
Thu 09:17:00 AM 66.8677 1.7771 283° West  Level FlightAware Approximate
Thu 09:18:00 AM 66.8948 1.4715 283° West  Level FlightAware Approximate
Thu 09:19:00 AM 66.9214 1.1651 283° West  Level FlightAware Approximate
Thu 09:20:00 AM 66.9474 0.8581 282° West  Level FlightAware Approximate
Thu 09:21:00 AM 66.9728 0.5505 282° West  Level FlightAware Approximate
Thu 09:22:00 AM 66.9976 0.2422 282° West  Level FlightAware Approximate
Thu 09:23:00 AM 67.0236 -0.0726 284° West  Level FlightAware Approximate
Thu 09:24:00 AM 67.0526 -0.3792 284° West  Level FlightAware Approximate
Thu 09:25:00 AM 67.0810 -0.6864 283° West  Level FlightAware Approximate
Thu 09:26:00 AM 67.1088 -0.9944 283° West  Level FlightAware Approximate
Thu 09:27:00 AM 67.1360 -1.3031 283° West  Level FlightAware Approximate
Thu 09:28:00 AM 67.1627 -1.6125 283° West  Level FlightAware Approximate
Thu 09:29:00 AM 67.1887 -1.9226 282° West  Level FlightAware Approximate
Thu 09:30:00 AM 67.2141 -2.2333 282° West  Level FlightAware Approximate
Thu 09:31:00 AM 67.2389 -2.5447 282° West  Level FlightAware Approximate
Thu 09:32:00 AM 67.2631 -2.8567 281° West  Level FlightAware Approximate
Thu 09:33:00 AM 67.2868 -3.1693 281° West  Level FlightAware Approximate
Thu 09:34:00 AM 67.3097 -3.4826 281° West  Level FlightAware Approximate
Thu 09:35:00 AM 67.3321 -3.7964 281° West  Level FlightAware Approximate
Thu 09:36:00 AM 67.3539 -4.1108 280° West  Level FlightAware Approximate
Thu 09:37:00 AM 67.3751 -4.4258 280° West  Level FlightAware Approximate
Thu 09:38:00 AM 67.3956 -4.7413 280° West  Level FlightAware Approximate
Thu 09:39:00 AM 67.4155 -5.0574 279° West  Level FlightAware Approximate
Thu 09:40:00 AM 67.4348 -5.3740 279° West  Level FlightAware Approximate
Thu 09:41:00 AM 67.4535 -5.6911 279° West  Level FlightAware Approximate
Thu 09:42:00 AM 67.4716 -6.0086 279° West  Level FlightAware Approximate
Thu 09:43:00 AM 67.4890 -6.3267 278° West  Level FlightAware Approximate
Thu 09:44:00 AM 67.5059 -6.6452 278° West  Level FlightAware Approximate
Thu 09:45:00 AM 67.5222 -6.9641 278° West  Level FlightAware Approximate
Thu 09:46:00 AM 67.5379 -7.2835 277° West  Level FlightAware Approximate
Thu 09:47:00 AM 67.5529 -7.6032 277° West  Level FlightAware Approximate
Thu 09:48:00 AM 67.5673 -7.9234 277° West  Level FlightAware Approximate
Thu 09:49:00 AM 67.5811 -8.2439 277° West  Level FlightAware Approximate
Thu 09:50:00 AM 67.5943 -8.5649 276° West  Level FlightAware Approximate
Thu 09:51:00 AM 67.6068 -8.8861 276° West  Level FlightAware Approximate
Thu 09:52:00 AM 67.6187 -9.2077 276° West  Level FlightAware Approximate
Thu 09:53:00 AM 67.6299 -9.5296 275° West  Level FlightAware Approximate
Thu 09:54:00 AM 67.6405 -9.8518 275° West  Level FlightAware Approximate
Thu 09:55:00 AM 67.6505 -10.1743 275° West  Level FlightAware Approximate
Thu 09:56:00 AM 67.6599 -10.4971 275° West  Level FlightAware Approximate
Thu 09:57:00 AM 67.6685 -10.8201 274° West  Level FlightAware Approximate
Thu 09:58:00 AM 67.6766 -11.1433 274° West  Level FlightAware Approximate
Thu 09:59:00 AM 67.6840 -11.4667 274° West  Level FlightAware Approximate
Thu 10:00:00 AM 67.6908 -11.7904 273° West  Level FlightAware Approximate
Thu 10:01:00 AM 67.6969 -12.1142 273° West  Level FlightAware Approximate
Thu 10:02:00 AM 67.7024 -12.4382 273° West  Level FlightAware Approximate
Thu 10:03:00 AM 67.7073 -12.7623 272° West  Level FlightAware Approximate
Thu 10:04:00 AM 67.7115 -13.0865 272° West  Level FlightAware Approximate
Thu 10:05:00 AM 67.7150 -13.4108 272° West  Level FlightAware Approximate
Thu 10:06:00 AM 67.7179 -13.7353 272° West  Level FlightAware Approximate
Thu 10:07:00 AM 67.7202 -14.0598 271° West  Level FlightAware Approximate
Thu 10:08:00 AM 67.7218 -14.3844 271° West  Level FlightAware Approximate
Thu 10:09:00 AM 67.7228 -14.7090 271° West  Level FlightAware Approximate
Thu 10:10:00 AM 67.7231 -15.0336 270° West  Level FlightAware Approximate
Thu 10:11:00 AM 67.7228 -15.3582 270° West  Level FlightAware Approximate
Thu 10:12:00 AM 67.7218 -15.6828 270° West  Level FlightAware Approximate
Thu 10:13:00 AM 67.7203 -16.0074 269° West  Level FlightAware Approximate
Thu 10:14:00 AM 67.7180 -16.3319 269° West  Level FlightAware Approximate
Thu 10:15:00 AM 67.7151 -16.6563 269° West  Level FlightAware Approximate
Thu 10:16:00 AM 67.7116 -16.9807 269° West  Level FlightAware Approximate
Thu 10:17:00 AM 67.7074 -17.3049 268° West  Level FlightAware Approximate
Thu 10:18:00 AM 67.7026 -17.6290 268° West  Level FlightAware Approximate
Thu 10:19:00 AM 67.6971 -17.9530 268° West  Level FlightAware Approximate
Thu 10:20:00 AM 67.6910 -18.2768 267° West  Level FlightAware Approximate
Thu 10:21:00 AM 67.6842 -18.6005 267° West  Level FlightAware Approximate
Thu 10:22:00 AM 67.6768 -18.9239 267° West  Level FlightAware Approximate
Thu 10:23:00 AM 67.6688 -19.2472 266° West  Level FlightAware Approximate
Thu 10:24:00 AM 67.6601 -19.5702 266° West  Level FlightAware Approximate
Thu 10:25:00 AM 67.6508 -19.8929 266° West  Level FlightAware Approximate
Thu 10:26:00 AM 67.6408 -20.2154 266° West  Level FlightAware Approximate
Thu 10:27:00 AM 67.6302 -20.5376 265° West  Level FlightAware Approximate
Thu 10:28:00 AM 67.6190 -20.8595 265° West  Level FlightAware Approximate
Thu 10:29:00 AM 67.6071 -21.1811 265° West  Level FlightAware Approximate
Thu 10:30:00 AM 67.5947 -21.5024 264° West  Level FlightAware Approximate
Thu 10:31:00 AM 67.5815 -21.8233 264° West  Level FlightAware Approximate
Thu 10:32:00 AM 67.5677 -22.1439 264° West  Level FlightAware Approximate
Thu 10:33:00 AM 67.5533 -22.4641 263° West  Level FlightAware Approximate
Thu 10:34:00 AM 67.5383 -22.7838 263° West  Level FlightAware Approximate
Thu 10:35:00 AM 67.5227 -23.1032 263° West  Level FlightAware Approximate
Thu 10:36:00 AM 67.5064 -23.4221 263° West  Level FlightAware Approximate
Thu 10:37:00 AM 67.4894 -23.7406 262° West  Level FlightAware Approximate
Thu 10:38:00 AM 67.4719 -24.0586 262° West  Level FlightAware Approximate
Thu 10:39:00 AM 67.4537 -24.3762 262° West  Level FlightAware Approximate
Thu 10:40:00 AM 67.4350 -24.6932 261° West  Level FlightAware Approximate
Thu 10:41:00 AM 67.4155 -25.0098 261° West  Level FlightAware Approximate
Thu 10:42:00 AM 67.3955 -25.3258 261° West  Level FlightAware Approximate
Thu 10:43:00 AM 67.3749 -25.6413 260° West  Level FlightAware Approximate
Thu 10:44:00 AM 67.3536 -25.9562 260° West  Level FlightAware Approximate
Thu 10:45:00 AM 67.3317 -26.2706 260° West  Level FlightAware Approximate
Thu 10:46:00 AM 67.3092 -26.5844 260° West  Level FlightAware Approximate
Thu 10:47:00 AM 67.2861 -26.8975 259° West  Level FlightAware Approximate
Thu 10:48:00 AM 67.2624 -27.2101 259° West  Level FlightAware Approximate
Thu 10:49:00 AM 67.2381 -27.5221 259° West  Level FlightAware Approximate
Thu 10:50:00 AM 67.2132 -27.8334 258° West  Level FlightAware Approximate
Thu 10:51:00 AM 67.1877 -28.1440 258° West  Level FlightAware Approximate
Thu 10:52:00 AM 67.1616 -28.4540 258° West  Level FlightAware Approximate
Thu 10:53:00 AM 67.1349 -28.7633 258° West  Level FlightAware Approximate
Thu 10:54:00 AM 67.1075 -29.0720 257° West  Level FlightAware Approximate
Thu 10:55:00 AM 67.0796 -29.3799 257° West  Level FlightAware Approximate
Thu 10:56:00 AM 67.0511 -29.6871 257° West  Level FlightAware Approximate
Thu 10:57:00 AM 67.0220 -29.9936 256° West  Level FlightAware Approximate
Thu 10:58:00 AM 66.9923 -30.2993 256° West  Level FlightAware Approximate
Thu 10:59:00 AM 66.9621 -30.6043 256° West  Level FlightAware Approximate
Thu 11:00:00 AM 66.9312 -30.9085 256° West  Level FlightAware Approximate
Thu 11:01:00 AM 66.9003 -31.2123 256° West  Level FlightAware Approximate
Thu 11:02:00 AM 66.8693 -31.5156 256° West  Level FlightAware Approximate
Thu 11:03:00 AM 66.8376 -31.8181 255° West  Level FlightAware Approximate
Thu 11:04:00 AM 66.8054 -32.1199 255° West  Level FlightAware Approximate
Thu 11:05:00 AM 66.7726 -32.4208 255° West  Level FlightAware Approximate
Thu 11:06:00 AM 66.7393 -32.7210 254° West  Level FlightAware Approximate
Thu 11:07:00 AM 66.7053 -33.0203 254° West  Level FlightAware Approximate
Thu 11:08:00 AM 66.6701 -33.3182 253° West  Level FlightAware Approximate
Thu 11:09:00 AM 66.6341 -33.6151 253° West  Level FlightAware Approximate
Thu 11:10:00 AM 66.5976 -33.9112 253° West  Level FlightAware Approximate
Thu 11:11:00 AM 66.5605 -34.2064 253° West  Level FlightAware Approximate
Thu 11:12:00 AM 66.5229 -34.5007 252° West  Level FlightAware Approximate
Thu 11:13:00 AM 66.4847 -34.7942 252° West  Level FlightAware Approximate
Thu 11:14:00 AM 66.4459 -35.0867 252° West  Level FlightAware Approximate
Thu 11:15:00 AM 66.4066 -35.3783 252° West  Level FlightAware Approximate
Thu 11:16:00 AM 66.3668 -35.6690 251° West  Level FlightAware Approximate
Thu 11:17:00 AM 66.3265 -35.9587 251° West  Level FlightAware Approximate
Thu 11:18:00 AM 66.2856 -36.2475 251° West  Level FlightAware Approximate
Thu 11:19:00 AM 66.2441 -36.5354 250° West  Level FlightAware Approximate
Thu 11:20:00 AM 66.2022 -36.8223 250° West  Level FlightAware Approximate
Thu 11:21:00 AM 66.1597 -37.1083 250° West  Level FlightAware Approximate
Thu 11:22:00 AM 66.1167 -37.3933 250° West  Level FlightAware Approximate
Thu 11:23:00 AM 66.0731 -37.6773 249° West  Level FlightAware Approximate
Thu 11:24:00 AM 66.0291 -37.9604 249° West  Level FlightAware Approximate
Thu 11:25:00 AM 65.9845 -38.2425 249° West  Level FlightAware Approximate
Thu 11:26:00 AM 65.9394 -38.5236 249° West  Level FlightAware Approximate
Thu 11:27:00 AM 65.8938 -38.8037 248° West  Level FlightAware Approximate
Thu 11:28:00 AM 65.8477 -39.0827 248° West  Level FlightAware Approximate
Thu 11:29:00 AM 65.8010 -39.3608 248° West  Level FlightAware Approximate
Thu 11:30:00 AM 65.7539 -39.6379 248° West  Level FlightAware Approximate
Thu 11:31:00 AM 65.7063 -39.9140 247° West  Level FlightAware Approximate
Thu 11:32:00 AM 65.6582 -40.1890 247° West  Level FlightAware Approximate
Thu 11:33:00 AM 65.6096 -40.4630 247° West  Level FlightAware Approximate
Thu 11:34:00 AM 65.5604 -40.7360 247° West  Level FlightAware Approximate
Thu 11:35:00 AM 65.5109 -41.0079 246° West  Level FlightAware Approximate
Thu 11:36:00 AM 65.4608 -41.2789 246° West  Level FlightAware Approximate
Thu 11:37:00 AM 65.4102 -41.5487 246° West  Level FlightAware Approximate
Thu 11:38:00 AM 65.3592 -41.8176 246° West  Level FlightAware Approximate
Thu 11:39:00 AM 65.3077 -42.0854 245° Southwest  Level FlightAware Approximate
Thu 11:40:00 AM 65.2557 -42.3521 245° Southwest  Level FlightAware Approximate
Thu 11:41:00 AM 65.2032 -42.6178 245° Southwest  Level FlightAware Approximate
Thu 11:42:00 AM 65.1504 -42.8825 245° Southwest  Level FlightAware Approximate
Thu 11:43:00 AM 65.0970 -43.1461 244° Southwest  Level FlightAware Approximate
Thu 11:44:00 AM 65.0432 -43.4087 244° Southwest  Level FlightAware Approximate
Thu 11:45:00 AM 64.9890 -43.6702 244° Southwest  Level FlightAware Approximate
Thu 11:46:00 AM 64.9342 -43.9306 244° Southwest  Level FlightAware Approximate
Thu 11:47:00 AM 64.8791 -44.1900 243° Southwest  Level FlightAware Approximate
Thu 11:48:00 AM 64.8235 -44.4483 243° Southwest  Level FlightAware Approximate
Thu 11:49:00 AM 64.7674 -44.7055 243° Southwest  Level FlightAware Approximate
Thu 11:50:00 AM 64.7109 -44.9617 243° Southwest  Level FlightAware Approximate
Thu 11:51:00 AM 64.6540 -45.2168 243° Southwest  Level FlightAware Approximate
Thu 11:52:00 AM 64.5966 -45.4708 242° Southwest  Level FlightAware Approximate
Thu 11:53:00 AM 64.5387 -45.7238 242° Southwest  Level FlightAware Approximate
Thu 11:54:00 AM 64.4805 -45.9757 242° Southwest  Level FlightAware Approximate
Thu 11:55:00 AM 64.4218 -46.2265 242° Southwest  Level FlightAware Approximate
Thu 11:56:00 AM 64.3627 -46.4762 241° Southwest  Level FlightAware Approximate
Thu 11:57:00 AM 64.3032 -46.7248 241° Southwest  Level FlightAware Approximate
Thu 11:57:02 AM 64.7333 -51.6667 240° Southwest 500 575 34,000  Level Gander Center
Thu 11:58:00 AM 64.2432 -46.9724 241° Southwest  Level FlightAware Approximate
Thu 11:58:02 AM 64.7000 -51.9500 255° West 510 587 34,000  Level Gander Center
Thu 11:59:00 AM 64.1829 -47.2189 241° Southwest  Level FlightAware Approximate
Thu 11:59:02 AM 64.6500 -52.2833 251° West 510 587 34,000  Level Gander Center
Thu 12:00:00 PM 64.1221 -47.4644 241° Southwest  Level FlightAware Approximate
Thu 12:00:02 PM 64.5833 -52.5667 241° Southwest 510 587 34,000  Level Gander Center
Thu 12:01:00 PM 64.0609 -47.7087 240° Southwest  Level FlightAware Approximate
Thu 12:02:00 PM 63.9993 -47.9520 240° Southwest  Level FlightAware Approximate
Thu 12:02:02 PM 64.4833 -53.1500 249° West 510 587 34,000  Level Gander Center
Thu 12:03:02 PM 64.4333 -53.4667 250° West 500 575 34,000  Level Gander Center
Thu 12:04:02 PM 64.3667 -53.7500 242° Southwest 500 575 34,000  Level Gander Center
Thu 12:05:02 PM 64.3000 -54.0333 242° Southwest 500 575 34,000  Level Gander Center
Thu 12:06:02 PM 64.2500 -54.3500 250° West 500 575 34,000  Level Gander Center
Thu 12:07:02 PM 64.2000 -54.6333 248° West 500 575 34,000  Level Gander Center
Thu 12:08:02 PM 64.1500 -54.9167 248° West 480 552 34,000  Level Gander Center
Thu 12:09:02 PM 64.0833 -55.1833 240° Southwest 490 564 34,000  Level Gander Center
Thu 12:10:02 PM 64.0333 -55.4667 248° West 500 575 34,000  Level Gander Center
Thu 12:11:02 PM 63.9667 -55.7500 242° Southwest 500 575 34,000  Level Gander Center
Thu 12:12:02 PM 63.9000 -56.0500 243° Southwest 500 575 34,000  Level Gander Center
Thu 12:14:02 PM 63.8000 -56.6000 248° West 480 552 34,000  Level Gander Center
Thu 12:16:02 PM 63.6500 -57.1000 236° Southwest 480 552 34,000  Level Gander Center
Thu 12:17:02 PM 63.5833 -57.3000 233° Southwest 480 552 34,000 500 Level Gander Center
Thu 12:18:02 PM 63.4833 -57.5333 226° Southwest 480 552 35,000 1,000 Climbing Gander Center
Thu 12:19:02 PM 63.4167 -57.7667 238° Southwest 480 552 36,000 500 Climbing Gander Center
Thu 12:20:02 PM 63.3167 -58.0000 226° Southwest 480 552 36,000  Level Gander Center
Thu 12:21:02 PM 63.2333 -58.2333 232° Southwest 480 552 36,000  Level Gander Center
Thu 12:22:02 PM 63.1500 -58.4167 225° Southwest 480 552 36,000  Level Gander Center
Thu 12:23:02 PM 63.0667 -58.6500 232° Southwest 470 541 36,000  Level Gander Center
Thu 12:24:02 PM 62.9833 -58.8833 232° Southwest 470 541 36,000  Level Gander Center
Thu 12:25:02 PM 62.8833 -59.1000 225° Southwest 470 541 36,000  Level Gander Center
Thu 12:26:02 PM 62.8167 -59.3333 238° Southwest 480 552 36,000  Level Gander Center
Thu 12:27:02 PM 62.7333 -59.5167 225° Southwest 470 541 36,000  Level Gander Center
Thu 12:28:27 PM 62.6000 -59.7500 219° Southwest 470 541 36,000  Level Montreal Center
Thu 12:29:02 PM 62.5500 -59.9500 242° Southwest 470 541 36,000  Level Gander Center
Thu 12:30:02 PM 62.4667 -60.1333 226° Southwest 470 541 36,000  Level Gander Center
Thu 12:31:27 PM 62.3500 -60.3667 223° Southwest 460 529 36,000  Level Montreal Center
Thu 12:32:02 PM 62.2833 -60.5667 234° Southwest 460 529 36,000  Level Gander Center
Thu 12:33:02 PM 62.2000 -60.7500 226° Southwest 460 529 36,000  Level Gander Center
Thu 12:34:02 PM 62.1333 -60.9667 237° Southwest 460 529 36,000  Level Gander Center
Thu 12:35:02 PM 62.0333 -61.1333 218° Southwest 460 529 36,000  Level Gander Center
Thu 12:36:02 PM 61.9500 -61.3500 231° Southwest 460 529 36,000  Level Gander Center
Thu 12:37:02 PM 61.8667 -61.5333 226° Southwest 460 529 36,000  Level Gander Center
Thu 12:38:02 PM 61.7667 -61.7333 223° Southwest 460 529 36,000  Level Gander Center
Thu 12:39:29 PM 61.6500 -62.0167 229° Southwest 470 541 36,000  Level Gander Center
Thu 12:40:02 PM 61.6000 -62.1167 224° Southwest 480 552 36,000  Level Gander Center
Thu 12:41:27 PM 61.4500 -62.3500 217° Southwest 470 541 36,000  Level Montreal Center
Thu 12:43:27 PM 61.2667 -62.7500 226° Southwest 470 541 36,000  Level Montreal Center
Thu 12:45:02 PM 61.1333 -63.1000 232° Southwest 480 552 36,000  Level Gander Center
Thu 12:46:27 PM 61.0000 -63.3167 218° Southwest 460 529 36,000  Level Montreal Center
Thu 12:47:02 PM 60.9500 -63.5000 241° Southwest 460 529 36,000  Level Gander Center
Thu 12:48:02 PM 60.8667 -63.6667 224° Southwest 460 529 36,000  Level Gander Center
Thu 12:49:02 PM 60.7500 -63.8667 220° Southwest 470 541 36,000  Level Gander Center
Thu 12:50:27 PM 60.6333 -64.0833 222° Southwest 470 541 36,000  Level Montreal Center
Thu 12:51:27 PM 60.5333 -64.2500 219° Southwest 470 541 36,000  Level Montreal Center
Thu 12:52:27 PM 60.4333 -64.4500 225° Southwest 460 529 36,000  Level Montreal Center
Thu 12:53:02 PM 60.4000 -64.5833 243° Southwest 470 541 36,000  Level Gander Center
Thu 12:54:02 PM 60.3000 -64.7667 222° Southwest 470 541 36,000  Level Gander Center
Thu 12:55:02 PM 60.2000 -64.9667 225° Southwest 470 541 36,000  Level Gander Center
Thu 12:56:27 PM 60.0667 -65.1500 214° Southwest 470 541 36,000  Level Montreal Center
Thu 12:57:27 PM 59.9667 -65.3333 223° Southwest 470 541 36,000  Level Montreal Center
Thu 12:58:27 PM 59.8667 -65.5000 220° Southwest 460 529 36,000  Level Montreal Center
Thu 12:59:27 PM 59.7667 -65.6500 217° Southwest 460 529 36,000  Level Montreal Center
Thu 01:00:27 PM 59.6833 -65.8167 225° Southwest 460 529 36,000  Level Montreal Center
Thu 01:01:02 PM 59.6167 -65.9833 232° Southwest 470 541 36,000  Level Gander Center
Thu 01:02:02 PM 59.5333 -66.1667 228° Southwest 470 541 36,000  Level Gander Center
Thu 01:03:02 PM 59.4333 -66.3167 217° Southwest 470 541 36,000  Level Gander Center
Thu 01:04:02 PM 59.3333 -66.5000 223° Southwest 470 541 36,000  Level Gander Center
Thu 01:05:27 PM 59.1833 -66.6500 207° Southwest 470 541 36,000  Level Montreal Center
Thu 01:06:27 PM 59.1000 -66.8167 226° Southwest 470 541 36,000  Level Montreal Center
Thu 01:07:27 PM 59.0000 -67.0000 223° Southwest 460 529 36,000  Level Montreal Center
Thu 01:08:27 PM 58.8833 -67.1667 216° Southwest 470 541 36,000  Level Montreal Center
Thu 01:09:27 PM 58.8000 -67.3167 223° Southwest 470 541 36,000  Level Montreal Center
Thu 01:10:27 PM 58.6833 -67.4667 214° Southwest 470 541 36,000  Level Montreal Center
Thu 01:11:27 PM 58.6000 -67.6167 223° Southwest 470 541 36,000  Level Montreal Center
Thu 01:12:27 PM 58.4833 -67.7833 217° Southwest 470 541 36,000  Level Montreal Center
Thu 01:13:02 PM 58.4167 -67.9333 230° Southwest 470 541 36,000  Level Gander Center
Thu 01:14:02 PM 58.3333 -68.1167 229° Southwest 470 541 36,000  Level Gander Center
Thu 01:15:27 PM 58.1833 -68.2667 208° Southwest 470 541 36,000  Level Montreal Center
Thu 01:17:02 PM 58.0000 -68.5667 221° Southwest 480 552 36,000  Level Gander Center
Thu 01:18:04 PM 57.9167 -68.6667 213° Southwest 470 541 36,000  Level Montreal Center
Thu 01:19:04 PM 57.8000 -68.8167 214° Southwest 470 541 36,000  Level Montreal Center
Thu 01:20:04 PM 57.6833 -68.9333 208° Southwest 470 541 36,000  Level Montreal Center
Thu 01:22:04 PM 57.4667 -69.2667 220° Southwest 470 541 36,000  Level Montreal Center
Thu 01:23:04 PM 57.3667 -69.4000 216° Southwest 470 541 36,000  Level Montreal Center
Thu 01:24:04 PM 57.2667 -69.5167 212° Southwest 470 541 36,000  Level Montreal Center
Thu 01:25:04 PM 57.1500 -69.6667 215° Southwest 470 541 36,000  Level Montreal Center
Thu 01:26:04 PM 57.0500 -69.8000 216° Southwest 460 529 36,000  Level Montreal Center
Thu 01:27:04 PM 56.9500 -69.9333 216° Southwest 470 541 36,000  Level Montreal Center
Thu 01:28:04 PM 56.8333 -70.0833 215° Southwest 470 541 36,000  Level Montreal Center
Thu 01:30:02 PM 56.6167 -70.4000 219° Southwest 470 541 36,000  Level Gander Center
Thu 01:31:02 PM 56.5167 -70.5333 216° Southwest 470 541 36,000  Level Gander Center
Thu 01:32:04 PM 56.4000 -70.6000 198° South 460 529 36,000  Level Montreal Center
Thu 01:33:04 PM 56.3167 -70.7333 222° Southwest 460 529 36,000  Level Montreal Center
Thu 01:35:02 PM 56.1000 -71.0667 221° Southwest 470 541 36,000  Level Gander Center
Thu 01:36:04 PM 55.9667 -71.1500 199° South 460 529 36,000  Level Montreal Center
Thu 01:37:04 PM 55.8833 -71.2833 222° Southwest 460 529 36,000  Level Montreal Center
Thu 01:38:04 PM 55.7667 -71.3833 206° Southwest 460 529 36,000  Level Montreal Center
Thu 01:39:04 PM 55.6667 -71.5167 217° Southwest 460 529 36,000  Level Montreal Center
Thu 01:40:04 PM 55.5500 -71.6500 213° Southwest 450 518 36,000  Level Montreal Center
Thu 01:41:04 PM 55.4333 -71.7833 213° Southwest 460 529 36,000  Level Montreal Center
Thu 01:43:02 PM 55.2333 -72.0667 219° Southwest 460 529 36,000  Level Gander Center
Thu 01:44:02 PM 55.1333 -72.1833 214° Southwest 460 529 36,000  Level Gander Center
Thu 01:45:02 PM 55.0167 -72.3000 210° Southwest 460 529 36,000  Level Gander Center
Thu 01:46:04 PM 54.9167 -72.3833 206° Southwest 450 518 36,000  Level Montreal Center
Thu 01:47:04 PM 54.8000 -72.5167 213° Southwest 450 518 36,000  Level Montreal Center
Thu 01:48:04 PM 54.7000 -72.6167 210° Southwest 450 518 36,000  Level Montreal Center
Thu 01:50:04 PM 54.5000 -72.8667 216° Southwest 440 506 36,000  Level Montreal Center
Thu 01:51:04 PM 54.3833 -72.9500 203° Southwest 450 518 36,000  Level Montreal Center
Thu 01:52:04 PM 54.2833 -73.0833 218° Southwest 440 506 36,000  Level Montreal Center
Thu 01:53:04 PM 54.1833 -73.2000 214° Southwest 450 518 36,000  Level Montreal Center
Thu 01:54:04 PM 54.0667 -73.3167 210° Southwest 450 518 36,000  Level Montreal Center
Thu 01:56:02 PM 53.8667 -73.5667 216° Southwest 440 506 36,000  Level Gander Center
Thu 01:57:04 PM 53.7500 -73.6500 203° Southwest 440 506 36,000  Level Montreal Center
Thu 01:59:02 PM 53.5500 -73.8667 213° Southwest 450 518 36,000  Level Gander Center
Thu 02:00:04 PM 53.4167 -73.9333 197° South 440 506 36,000  Level Montreal Center
Thu 02:01:04 PM 53.3167 -74.0167 206° Southwest 440 506 36,000  Level Montreal Center
Thu 02:02:04 PM 53.2000 -74.1000 203° Southwest 440 506 36,000  Level Montreal Center
Thu 02:03:04 PM 53.0833 -74.2000 207° Southwest 440 506 36,000  Level Montreal Center
Thu 02:04:04 PM 52.9833 -74.2833 207° Southwest 440 506 36,000  Level Montreal Center
Thu 02:06:02 PM 52.7667 -74.5333 215° Southwest 450 518 36,000  Level Gander Center
Thu 02:07:02 PM 52.6500 -74.6167 203° Southwest 450 518 36,000  Level Gander Center
Thu 02:08:02 PM 52.5500 -74.7000 207° Southwest 450 518 36,000  Level Gander Center
Thu 02:09:04 PM 52.4167 -74.7500 193° South 440 506 36,000  Level Montreal Center
Thu 02:10:04 PM 52.3167 -74.8333 207° Southwest 440 506 36,000  Level Montreal Center
Thu 02:11:04 PM 52.2000 -74.9167 204° Southwest 440 506 36,000  Level Montreal Center
Thu 02:12:04 PM 52.0833 -75.0000 204° Southwest 440 506 36,000  Level Montreal Center
Thu 02:13:04 PM 51.9833 -75.0833 207° Southwest 440 506 36,000  Level Montreal Center
Thu 02:14:04 PM 51.8667 -75.2000 212° Southwest 440 506 36,000  Level Montreal Center
Thu 02:15:04 PM 51.7500 -75.2833 204° Southwest 440 506 36,000  Level Montreal Center
Thu 02:16:04 PM 51.6333 -75.3667 204° Southwest 440 506 36,000  Level Montreal Center
Thu 02:17:04 PM 51.5333 -75.4500 207° Southwest 440 506 36,000  Level Montreal Center
Thu 02:18:04 PM 51.4167 -75.5333 204° Southwest 440 506 36,000  Level Montreal Center
Thu 02:19:04 PM 51.3000 -75.6167 204° Southwest 440 506 36,000  Level Montreal Center
Thu 02:21:04 PM 51.0833 -75.7833 206° Southwest 450 518 36,000  Level Montreal Center
Thu 02:22:04 PM 50.9667 -75.8833 208° Southwest 450 518 36,000  Level Montreal Center
Thu 02:23:04 PM 50.8500 -75.9667 204° Southwest 450 518 36,000  Level Montreal Center
Thu 02:24:04 PM 50.7333 -76.0500 204° Southwest 450 518 36,000  Level Montreal Center
Thu 02:25:04 PM 50.6333 -76.1167 203° Southwest 450 518 36,000  Level Montreal Center
Thu 02:26:04 PM 50.5167 -76.2000 204° Southwest 450 518 36,000  Level Montreal Center
Thu 02:27:04 PM 50.4000 -76.2833 204° Southwest 450 518 36,000  Level Montreal Center
Thu 02:28:04 PM 50.3000 -76.3667 208° Southwest 450 518 36,000  Level Montreal Center
Thu 02:29:04 PM 50.1833 -76.4667 209° Southwest 450 518 36,000  Level Montreal Center
Thu 02:30:04 PM 50.0500 -76.5500 202° Southwest 450 518 36,000  Level Montreal Center
Thu 02:31:04 PM 49.9333 -76.6167 200° South 450 518 36,000  Level Montreal Center
Thu 02:32:04 PM 49.8167 -76.7000 205° Southwest 450 518 36,000  Level Montreal Center
Thu 02:33:04 PM 49.7000 -76.7667 200° South 440 506 36,000  Level Montreal Center
Thu 02:35:04 PM 49.5000 -76.9167 206° Southwest 430 495 36,000  Level Montreal Center
Thu 02:37:04 PM 49.2667 -77.1000 207° Southwest 440 506 36,000  Level Montreal Center
Thu 02:38:04 PM 49.1500 -77.1667 200° South 450 518 36,000  Level Montreal Center
Thu 02:39:04 PM 49.0333 -77.2500 205° Southwest 460 529 36,000  Level Montreal Center
Thu 02:40:04 PM 48.9000 -77.3167 198° South 450 518 36,000  Level Montreal Center
Thu 02:41:04 PM 48.7833 -77.4167 209° Southwest 450 518 36,000  Level Montreal Center
Thu 02:42:04 PM 48.6667 -77.5000 205° Southwest 460 529 36,000  Level Montreal Center
Thu 02:44:22 PM 48.4000 -77.6500 200° South 460 529 36,000  Level Toronto Center
Thu 02:45:22 PM 48.2833 -77.7000 196° South 460 529 36,000  Level Toronto Center
Thu 02:46:04 PM 48.2167 -77.8000 225° Southwest 460 529 36,000  Level Montreal Center
Thu 02:47:04 PM 48.1000 -77.8833 206° Southwest 460 529 36,000  Level Montreal Center
Thu 02:48:04 PM 47.9667 -77.9500 199° South 460 529 36,000  Level Montreal Center
Thu 02:49:04 PM 47.8500 -78.0167 201° Southwest 460 529 36,000  Level Montreal Center
Thu 02:50:04 PM 47.7167 -78.0833 199° South 460 529 36,000  Level Montreal Center
Thu 02:51:04 PM 47.6000 -78.1667 206° Southwest 460 529 36,000  Level Montreal Center
Thu 02:52:04 PM 47.5000 -78.2333 204° Southwest 460 529 36,000  Level Montreal Center
Thu 02:53:04 PM 47.3667 -78.3000 199° South 460 529 36,000  Level Montreal Center
Thu 02:58:54 PM 46.6716 -78.6802 201° Southwest 466 536 36,000  Level FlightAware ADS-B (CYYZ)
Thu 02:59:31 PM 46.5900 -78.7253 201° Southwest 466 536 36,000  Level FlightAware ADS-B (CYYZ)
Thu 03:00:18 PM 46.4984 -78.7760 201° Southwest 467 537 36,000  Level FlightAware ADS-B (CYYZ)
Thu 03:00:48 PM 46.4360 -78.8103 201° Southwest 467 537 36,000  Level FlightAware ADS-B (CYYZ)
Thu 03:01:17 PM 46.3782 -78.8420 201° Southwest 469 540 36,000  Level FlightAware ADS-B (CYYZ)
Thu 03:01:48 PM 46.3163 -78.8759 201° Southwest 470 541 36,000  Level FlightAware ADS-B (CYYZ)
Thu 03:02:18 PM 46.2529 -78.9105 201° Southwest 470 541 36,000  Level FlightAware ADS-B (CYYZ)
Thu 03:03:03 PM 46.1606 -78.9607 201° Southwest 470 541 36,000  Level FlightAware ADS-B (CYYZ)
Thu 03:03:33 PM 46.1012 -78.9930 201° Southwest 470 541 36,000  Level FlightAware ADS-B (CYYZ)
Thu 03:04:03 PM 46.0402 -79.0261 201° Southwest 469 540 36,000  Level FlightAware ADS-B (CYYZ)
Thu 03:04:33 PM 45.9780 -79.0598 201° Southwest 468 539 36,000  Level FlightAware ADS-B (CYYZ)
Thu 03:05:03 PM 45.9170 -79.0927 201° Southwest 468 539 36,000  Level FlightAware ADS-B (CYYZ)
Thu 03:05:33 PM 45.8587 -79.1239 201° Southwest 467 537 36,000  Level FlightAware ADS-B (CYYZ)
Thu 03:06:04 PM 45.7952 -79.1579 201° Southwest 467 537 36,000  Level FlightAware ADS-B (CYYZ)
Thu 03:06:33 PM 45.7382 -79.1883 201° Southwest 467 537 36,000  Level FlightAware ADS-B (CYYZ)
Thu 03:07:18 PM 45.6441 -79.2387 201° Southwest 468 539 36,000  Level FlightAware ADS-B (CYYZ)
Thu 03:07:47 PM 45.5864 -79.2692 201° Southwest 469 540 36,000  Level FlightAware ADS-B (CYYZ)
Thu 03:08:19 PM 45.5232 -79.3028 201° Southwest 468 539 36,000  Level FlightAware ADS-B (CYYZ)
Thu 03:08:49 PM 45.4604 -79.3363 201° Southwest 469 540 36,000  Level FlightAware ADS-B (CYYZ)
Thu 03:09:19 PM 45.4012 -79.3676 201° Southwest 470 541 36,000  Level FlightAware ADS-B (CYYZ)
Thu 03:10:04 PM 45.3065 -79.4174 201° Southwest 471 542 36,000  Level FlightAware ADS-B (CYYZ)
Thu 03:10:34 PM 45.2464 -79.4490 201° Southwest 472 543 36,000  Level FlightAware ADS-B (CYYZ)
Thu 03:11:04 PM 45.1870 -79.4801 201° Southwest 473 544 36,000  Level FlightAware ADS-B (CYYZ)
Thu 03:11:35 PM 45.1223 -79.5140 201° Southwest 473 544 36,000  Level FlightAware ADS-B (CYYZ)
Thu 03:12:04 PM 45.0606 -79.5462 201° Southwest 473 544 36,000  Level FlightAware ADS-B (CYYZ)
Thu 03:12:35 PM 44.9983 -79.5784 201° Southwest 474 545 36,000  Level FlightAware ADS-B (CYYZ)
Thu 03:13:20 PM 44.9061 -79.6262 201° Southwest 475 547 36,000  Level FlightAware ADS-B (CYYZ)
Thu 03:13:50 PM 44.8446 -79.6581 201° Southwest 476 548 36,000  Level FlightAware ADS-B (CYYZ)
Thu 03:14:07 PM 44.8089 -79.6766 200° South 477 549 36,000  Level FlightAware ADS-B (EPLB / LUZ)
Thu 03:14:20 PM 44.7820 -79.6905 201° Southwest 476 548 36,000  Level FlightAware ADS-B (CYYZ)
Thu 03:14:47 PM 44.7305 -79.7171 200° South 475 547 36,000  Level FlightAware ADS-B (EPLB / LUZ)
Thu 03:15:05 PM 44.6892 -79.7383 201° Southwest 474 545 36,000  Level FlightAware ADS-B (CYYZ)
Thu 03:15:29 PM 44.6404 -79.7634 200° South 475 547 36,000  Level FlightAware ADS-B (EPLB / LUZ)
Thu 03:15:35 PM 44.6277 -79.7703 202° Southwest 474 545 36,000  Level FlightAware ADS-B (CYYZ)
Thu 03:16:05 PM 44.5660 -79.8092 207° Southwest 473 544 36,000  Level FlightAware ADS-B (CYYZ)
Thu 03:16:12 PM 44.5530 -79.8189 208° Southwest 472 543 36,000  Level FlightAware ADS-B (EPLB / LUZ)
Thu 03:16:35 PM 44.5107 -79.8551 214° Southwest 469 540 36,000  Level FlightAware ADS-B (CYYZ)
Thu 03:16:52 PM 44.4798 -79.8838 214° Southwest 469 540 36,000  Level FlightAware ADS-B (EPLB / LUZ)
Thu 03:17:05 PM 44.4556 -79.9063 214° Southwest 470 541 36,000  Level FlightAware ADS-B (CYYZ)
Thu 03:17:32 PM 44.4103 -79.9480 213° Southwest 471 542 36,000  Level FlightAware ADS-B (EPLB / LUZ)
Thu 03:17:51 PM 44.3749 -79.9801 213° Southwest 470 541 36,000  Level FlightAware ADS-B (CYYZ)
Thu 03:18:20 PM 44.3194 -80.0299 213° Southwest 471 542 36,000  Level FlightAware ADS-B (CYYZ)
Thu 03:18:32 PM 44.2994 -80.0478 213° Southwest 472 543 36,000  Level FlightAware ADS-B (EPLB / LUZ)
Thu 03:18:51 PM 44.2642 -80.0794 213° Southwest 472 543 36,000  Level FlightAware ADS-B (CYYZ)
Thu 03:19:21 PM 44.2082 -80.1293 213° Southwest 472 543 36,000  Level FlightAware ADS-B (CYYZ)
Thu 03:19:55 PM 44.1464 -80.1844 213° Southwest 475 547 36,000  Level FlightAware ADS-B (EPLB / LUZ)
Thu 03:20:06 PM 44.1256 -80.2029 213° Southwest 474 545 36,000  Level FlightAware ADS-B (CYYZ)
Thu 03:20:36 PM 44.0837 -80.2401 213° Southwest 476 548 36,000  Level FlightAware ADS-B (EPLB / LUZ)
Thu 03:20:51 PM 44.0422 -80.2769 213° Southwest 475 547 36,000  Level FlightAware ADS-B (CYYZ)
Thu 03:21:14 PM 44.0067 -80.3083 213° Southwest 474 545 36,000  Level FlightAware ADS-B (EPLB / LUZ)
Thu 03:21:21 PM 43.9886 -80.3243 213° Southwest 474 545 36,000  Level FlightAware ADS-B (CYYZ)
Thu 03:21:49 PM 43.9373 -80.3695 213° Southwest 474 545 36,000  Level FlightAware ADS-B (EPLB / LUZ)
Thu 03:21:51 PM 43.9299 -80.3761 213° Southwest 474 545 36,000  Level FlightAware ADS-B (CYYZ)
Thu 03:22:21 PM 43.8743 -80.4251 213° Southwest 472 543 36,000  Level FlightAware ADS-B (CYYZ)
Thu 03:22:22 PM 43.8779 -80.4220 213° Southwest 474 545 36,000  Level FlightAware ADS-B (CYKF)
Thu 03:23:00 PM 43.8044 -80.4866 212° Southwest 473 544 36,000  Level FlightAware ADS-B (EPLB / LUZ)
Thu 03:23:07 PM 43.7922 -80.4973 213° Southwest 472 543 36,000  Level FlightAware ADS-B (CYYZ)
Thu 03:23:37 PM 43.7363 -80.5462 213° Southwest 471 542 36,000  Level FlightAware ADS-B (CYYZ)
Thu 03:24:07 PM 43.6810 -80.5947 213° Southwest 471 542 36,000  Level FlightAware ADS-B (CYYZ)
Thu 03:24:16 PM 43.6968 -80.5809 212° Southwest 471 542 36,000  Level FlightAware ADS-B (EPLB / LUZ)
Thu 03:24:36 PM 43.6262 -80.6425 213° Southwest 471 542 36,000  Level FlightAware ADS-B (CYYZ)
Thu 03:25:07 PM 43.5701 -80.6914 213° Southwest 471 542 36,000  Level FlightAware ADS-B (CYYZ)
Thu 03:25:21 PM 43.6124 -80.6545 212° Southwest 471 542 36,000  Level FlightAware ADS-B (EPLB / LUZ)
Thu 03:25:52 PM 43.4867 -80.7636 213° Southwest 472 543 36,000  Level FlightAware ADS-B (CYYZ)
Thu 03:26:11 PM 43.4619 -80.7851 212° Southwest 473 544 36,000  Level FlightAware ADS-B (EPLB / LUZ)
Thu 03:26:22 PM 43.4311 -80.8117 213° Southwest 472 543 36,000  Level FlightAware ADS-B (CYYZ)
Thu 03:27:07 PM 43.3475 -80.8839 213° Southwest 472 543 36,000  Level FlightAware ADS-B (CYYZ)
Thu 03:27:11 PM 43.3412 -80.8894 212° Southwest 472 543 36,000  Level FlightAware ADS-B (EPLB / LUZ)
Thu 03:27:37 PM 43.2920 -80.9317 213° Southwest 472 543 36,000  Level FlightAware ADS-B (CYYZ)
Thu 03:28:08 PM 43.2360 -80.9797 213° Southwest 470 541 36,000  Level FlightAware ADS-B (CYYZ)
Thu 03:28:38 PM 43.1814 -81.0265 213° Southwest 469 540 36,000  Level FlightAware ADS-B (CYYZ)
Thu 03:28:40 PM 43.1924 -81.0170 212° Southwest 470 541 36,000  Level FlightAware ADS-B (EPLB / LUZ)
Thu 03:29:07 PM 43.1265 -81.0734 213° Southwest 468 539 36,000  Level FlightAware ADS-B (CYYZ)
Thu 03:29:23 PM 43.0991 -81.0968 212° Southwest 469 540 36,000  Level FlightAware ADS-B (CYKF)
Thu 03:29:38 PM 43.0706 -81.1212 212° Southwest 468 539 36,000  Level FlightAware ADS-B (CYYZ)
Thu 03:29:55 PM 43.0384 -81.1463 208° Southwest 470 541 36,000  Level FlightAware ADS-B (EPLB / LUZ)
Thu 03:30:08 PM 43.0149 -81.1616 205° Southwest 472 543 36,000  Level FlightAware ADS-B (CYYZ)
Thu 03:30:38 PM 42.9533 -81.1989 206° Southwest 471 542 36,000  Level FlightAware ADS-B (CYYZ)
Thu 03:30:50 PM 42.9298 -81.2143 206° Southwest 471 542 36,000  Level FlightAware ADS-B (EPLB / LUZ)
Thu 03:31:08 PM 42.8945 -81.2371 206° Southwest 472 543 36,000  Level FlightAware ADS-B (CYYZ)
Thu 03:31:23 PM 42.8649 -81.2558 205° Southwest 474 545 36,000  Level FlightAware ADS-B (CYKF)
Thu 03:31:38 PM 42.8343 -81.2748 205° Southwest 472 543 36,000  Level FlightAware ADS-B (CYYZ)
Thu 03:32:08 PM 42.7796 -81.3086 205° Southwest 473 544 36,000  Level FlightAware ADS-B (CYYZ)
Thu 03:32:13 PM 42.7656 -81.3172 204° Southwest 473 544 36,000  Level FlightAware ADS-B (EPLB / LUZ)
Thu 03:32:53 PM 42.6877 -81.3649 205° Southwest 470 541 36,000  Level FlightAware ADS-B (CYYZ)
Thu 03:33:23 PM 42.6251 -81.4033 205° Southwest 470 541 36,000  Level FlightAware ADS-B (CYYZ)
Thu 03:33:53 PM 42.5672 -81.4388 205° Southwest 470 541 36,000  Level FlightAware ADS-B (CYYZ)
Thu 03:34:24 PM 42.5088 -81.4743 205° Southwest 470 541 36,000  Level FlightAware ADS-B (CYYZ)
Thu 03:34:54 PM 42.4470 -81.5119 205° Southwest 470 541 36,000  Level FlightAware ADS-B (CYYZ)
Thu 03:35:39 PM 42.3599 -81.5647 205° Southwest 468 539 36,000  Level FlightAware ADS-B (CYYZ)
Thu 03:36:09 PM 42.3057 -81.5975 205° Southwest 467 537 36,000  Level FlightAware ADS-B (CYYZ)
Thu 03:36:54 PM 42.2141 -81.6529 205° Southwest 468 539 36,000  Level FlightAware ADS-B (CYYZ)
Thu 03:37:24 PM 42.1503 -81.6913 205° Southwest 469 540 36,000  Level FlightAware ADS-B (CYYZ)
Thu 03:37:54 PM 42.0954 -81.7245 205° Southwest 470 541 36,000  Level FlightAware ADS-B (CYYZ)
Thu 03:38:39 PM 42.0070 -81.7776 205° Southwest 470 541 36,000  Level FlightAware ADS-B (CYYZ)
Thu 03:39:24 PM 41.9160 -81.8320 204° Southwest 469 540 36,000  Level FlightAware ADS-B (CYYZ)
Thu 03:39:53 PM 41.8551 -81.8684 204° Southwest 469 540 36,000  Level FlightAware ADS-B (CYYZ)
Thu 03:40:24 PM 41.7921 -81.9058 204° Southwest 468 539 36,000  Level FlightAware ADS-B (CYYZ)
Thu 03:41:09 PM 41.7108 -81.9540 204° Southwest 466 536 36,000  Level FlightAware ADS-B (CYYZ)
Thu 03:41:39 PM 41.6447 -81.9931 204° Southwest 466 536 36,000  Level FlightAware ADS-B (CYYZ)
Thu 03:42:09 PM 41.5838 -82.0292 204° Southwest 466 536 36,000  Level FlightAware ADS-B (CYYZ)
Thu 03:42:40 PM 41.5380 -82.0561 204° Southwest 466 536 36,000  Level FlightAware ADS-B (CYYZ)
Thu 03:43:10 PM 41.4644 -82.0996 204° Southwest 466 536 36,000  Level FlightAware ADS-B (CYYZ)
Thu 03:43:40 PM 41.4051 -82.1344 204° Southwest 466 536 36,000  Level FlightAware ADS-B (CYYZ)
Thu 03:44:23 PM 41.3250 -82.1725 196° South 471 542 36,000  Level FlightAware ADS-B (CYYZ)
Thu 03:44:40 PM 41.2988 -82.1814 195° South 472 543 36,000  Level FlightAware ADS-B (CYYZ)
Thu 03:52:03 PM 40.3607 -82.5155 195° South 470 541 36,000  Level FlightAware ADS-B (EGCN / DSA)
Thu 03:53:03 PM 40.2246 -82.5629 195° South 467 537 36,000  Level FlightAware ADS-B (EGCN / DSA)
Thu 03:53:48 PM 40.1294 -82.5870 186° South 471 542 36,000  Level FlightAware ADS-B (EGCN / DSA)
Thu 03:54:18 PM 40.0657 -82.5926 183° South 475 547 36,000  Level FlightAware ADS-B (EGCN / DSA)
Thu 03:54:49 PM 39.9970 -82.5980 184° South 474 545 36,000  Level FlightAware ADS-B (EGCN / DSA)
Thu 03:55:28 PM 39.9112 -82.6046 183° South 474 545 36,000  Level FlightAware ADS-B
Thu 03:56:03 PM 39.8338 -82.6100 183° South 473 544 36,000  Level FlightAware ADS-B (EGCN / DSA)
Thu 03:56:33 PM 39.7751 -82.6140 183° South 472 543 36,000  Level FlightAware ADS-B (EGCN / DSA)
Thu 03:57:15 PM 39.6777 -82.6205 183° South 469 540 36,000  Level FlightAware ADS-B
Thu 03:57:46 PM 39.6141 -82.6248 183° South 467 537 36,000  Level FlightAware ADS-B
Thu 03:58:16 PM 39.5466 -82.6292 183° South 465 535 36,000  Level FlightAware ADS-B
Thu 03:58:48 PM 39.4831 -82.6335 183° South 464 534 36,000  Level FlightAware ADS-B
Thu 03:59:19 PM 39.4132 -82.6382 183° South 464 534 36,000  Level FlightAware ADS-B (EGCN / DSA)
Thu 04:00:02 PM 39.3196 -82.6445 183° South 464 534 36,000  Level FlightAware ADS-B (EGCN / DSA)
Thu 04:00:38 PM 39.2418 -82.6497 183° South 464 534 36,000  Level FlightAware ADS-B
Thu 04:01:08 PM 39.1834 -82.6536 183° South 464 534 36,000  Level FlightAware ADS-B
Thu 04:01:38 PM 39.1156 -82.6581 183° South 465 535 36,000  Level FlightAware ADS-B
Thu 04:02:15 PM 39.0330 -82.6636 183° South 464 534 36,000  Level FlightAware ADS-B
Thu 04:02:45 PM 38.9709 -82.6677 183° South 463 533 36,000  Level FlightAware ADS-B
Thu 04:03:15 PM 38.9063 -82.6719 183° South 462 532 36,000  Level FlightAware ADS-B
Thu 04:03:56 PM 38.8178 -82.6777 183° South 461 531 36,000  Level FlightAware ADS-B
Thu 04:04:27 PM 38.7535 -82.6819 183° South 460 529 36,000  Level FlightAware ADS-B
Thu 04:05:06 PM 38.6721 -82.6872 183° South 459 528 36,000  Level FlightAware ADS-B
Thu 04:05:56 PM 38.5648 -82.6943 183° South 461 531 36,000  Level FlightAware ADS-B
Thu 04:06:26 PM 38.5339 -82.6963 183° South 461 531 36,000  Level FlightAware ADS-B
Thu 04:08:34 PM 38.2339 -82.7175 207° Southwest 459 528 36,000  Level Indianapolis Center
Thu 04:09:00 PM 38.2152 -82.7132 182° South  Level FlightAware Approximate
Thu 04:09:36 PM 38.1067 -82.7247 183° South 459 528 36,000  Level Indianapolis Center
Thu 04:10:00 PM 38.0910 -82.7198 182° South  Level FlightAware Approximate
Thu 04:10:38 PM 37.9789 -82.7336 183° South 459 528 36,000  Level Indianapolis Center
Thu 04:11:00 PM 37.9669 -82.7263 182° South  Level FlightAware Approximate
Thu 04:12:00 PM 37.8427 -82.7328 182° South  Level FlightAware Approximate
Thu 04:12:42 PM 37.7236 -82.7528 183° South 459 528 36,000  Level Indianapolis Center
Thu 04:13:00 PM 37.7187 -82.7402 186° South  Level FlightAware Approximate
Thu 04:13:45 PM 37.5889 -82.8119 199° South 442 509 36,000  Level Indianapolis Center
Thu 04:14:00 PM 37.6013 -82.7826 208° Southwest  Level FlightAware Approximate
Thu 04:14:47 PM 37.4811 -82.8819 207° Southwest 437 503 36,000  Level Indianapolis Center
Thu 04:15:00 PM 37.4915 -82.8560 208° Southwest  Level FlightAware Approximate
Thu 04:15:49 PM 37.3747 -82.9531 208° Southwest 436 502 36,000  Level Indianapolis Center
Thu 04:16:00 PM 37.3817 -82.9292 208° Southwest  Level FlightAware Approximate
Thu 04:16:51 PM 37.2661 -83.0228 207° Southwest 437 503 36,000  Level Indianapolis Center
Thu 04:17:00 PM 37.2718 -83.0022 208° Southwest  Level FlightAware Approximate
Thu 04:17:53 PM 37.1578 -83.0947 208° Southwest 438 504 36,000  Level Indianapolis Center
Thu 04:18:00 PM 37.1615 -83.0743 207° Southwest  Level FlightAware Approximate
Thu 04:18:55 PM 37.0306 -83.1781 208° Southwest 443 510 36,000  Level Indianapolis Center
Thu 04:20:59 PM 36.8086 -83.3200 207° Southwest 450 518 36,000  Level Indianapolis Center
Thu 04:22:01 PM 36.6975 -83.3906 207° Southwest 451 519 36,000  Level Indianapolis Center
Thu 04:23:41 PM 36.5056 -83.5144 207° Southwest 461 531 36,000  Level Atlanta Center
Thu 04:24:41 PM 36.3933 -83.5875 208° Southwest 461 531 36,000  Level Atlanta Center
Thu 04:25:41 PM 36.2808 -83.6600 207° Southwest 456 525 36,000  Level Atlanta Center
Thu 04:26:41 PM 36.1581 -83.7353 206° Southwest 456 525 36,000  Level Atlanta Center
Thu 04:27:41 PM 36.0558 -83.8025 208° Southwest 456 525 36,000  Level Atlanta Center
Thu 04:28:41 PM 35.9414 -83.8694 205° Southwest 456 525 36,000  Level Atlanta Center
Thu 04:29:41 PM 35.8161 -83.9158 197° South 463 533 36,000  Level Atlanta Center
Thu 04:30:41 PM 35.6869 -83.9467 191° South 468 539 36,000  Level Atlanta Center
Thu 04:31:41 PM 35.5575 -83.9800 192° South 478 550 36,000  Level Atlanta Center
Thu 04:32:41 PM 35.4261 -84.0108 191° South 478 550 36,000  Level Atlanta Center
Thu 04:33:41 PM 35.2989 -84.0439 192° South 478 550 36,000  Level Atlanta Center
Thu 04:34:41 PM 35.1694 -84.0744 189° South 483 556 36,000  Level Atlanta Center
Thu 04:35:00 PM 35.1370 -84.0760 189° South  Level FlightAware Approximate
Thu 04:36:41 PM 34.9108 -84.1350 191° South 483 556 36,000  Level Atlanta Center
Thu 04:37:41 PM 34.7814 -84.1653 191° South 483 556 36,000  Level Atlanta Center
Thu 04:38:41 PM 34.6436 -84.2003 192° South 478 550 36,000  Level Atlanta Center
Thu 04:39:41 PM 34.5161 -84.2303 191° South 472 543 36,000  Level Atlanta Center
Thu 04:40:41 PM 34.3869 -84.2578 190° South 472 543 36,000  Level Atlanta Center
Thu 04:41:41 PM 34.2572 -84.2875 191° South 472 543 36,000  Level Atlanta Center
Thu 04:42:41 PM 34.1300 -84.3197 192° South 472 543 36,000  Level Atlanta Center
Thu 04:43:41 PM 34.0006 -84.3494 191° South 477 549 36,000 150 Level Atlanta Center
Thu 04:44:41 PM 33.8689 -84.3817 191° South 472 543 36,300 333 Climbing Atlanta Center
Thu 04:46:41 PM 33.6058 -84.4353 190° South 477 549 37,000 233 Climbing Atlanta Center
Thu 04:47:41 PM 33.4742 -84.4322 179° South 482 555 37,000  Level Atlanta Center
Thu 04:48:41 PM 33.3386 -84.4292 179° South 482 555 37,000  Level Atlanta Center
Thu 04:49:41 PM 33.2050 -84.4286 180° South 482 555 37,000  Level Atlanta Center
Thu 04:50:41 PM 33.0736 -84.4256 179° South 477 549 37,000  Level Atlanta Center
Thu 04:51:41 PM 32.9378 -84.4250 180° South 477 549 37,000  Level Atlanta Center
Thu 04:52:41 PM 32.8064 -84.4194 178° South 477 549 37,000  Level Atlanta Center
Thu 04:53:41 PM 32.6894 -84.4164 179° South 472 543 37,000  Level Atlanta Center
Thu 04:54:41 PM 32.5581 -84.4011 174° South 472 543 37,000  Level Atlanta Center
Thu 04:55:41 PM 32.4331 -84.3417 158° South 478 550 37,000  Level Atlanta Center
Thu 04:57:41 PM 32.1953 -84.2033 154° Southeast 478 550 37,000  Level Atlanta Center
Thu 04:58:41 PM 32.0931 -84.1050 141° Southeast 473 544 37,000  Level Atlanta Center
Thu 04:59:41 PM 31.9969 -83.9997 137° Southeast 473 544 37,000  Level Atlanta Center
Thu 05:07:02 PM 31.0119 -83.9404 178° South 484 557 37,000  Level FlightAware ADS-B (KONZ)
Thu 05:07:42 PM 30.9154 -83.9366 178° South 484 557 37,000  Level FlightAware ADS-B (KONZ)
Thu 05:08:19 PM 30.8348 -83.9216 162° South 483 556 37,000  Level FlightAware ADS-B (KONZ)
Thu 05:08:52 PM 30.7683 -83.8912 158° South 482 555 37,000  Level FlightAware ADS-B (KONZ)
Thu 05:09:23 PM 30.7111 -83.8652 159° South 482 555 37,000  Level FlightAware ADS-B (KONZ)
Thu 05:09:53 PM 30.6399 -83.8341 160° South 482 555 37,000  Level FlightAware ADS-B (KONZ)
Thu 05:10:32 PM 30.5588 -83.7994 160° South 481 554 37,000  Level FlightAware ADS-B (KONZ)
Thu 05:11:10 PM 30.4793 -83.7650 160° South 480 552 37,000  Level FlightAware ADS-B (KONZ)
Thu 05:11:43 PM 30.4116 -83.7358 160° South 480 552 37,000  Level FlightAware ADS-B (KONZ)
Thu 05:11:45 PM 30.4286 -83.7431 171° South 477 549 37,000  Level Jacksonville Center
Thu 05:12:13 PM 30.3484 -83.7087 159° South 481 554 37,000  Level FlightAware ADS-B (KONZ)
Thu 05:12:45 PM 30.3017 -83.6914 161° South 477 549 37,000  Level Jacksonville Center
Thu 05:12:51 PM 30.2690 -83.6745 160° South 482 555 37,000  Level FlightAware ADS-B (KONZ)
Thu 05:13:45 PM 30.1767 -83.6350 159° South 477 549 37,000  Level Jacksonville Center
Thu 05:14:45 PM 30.0517 -83.5836 160° South 477 549 37,000  Level Jacksonville Center
Thu 05:15:45 PM 29.9247 -83.5300 160° South 482 555 37,000  Level Jacksonville Center
Thu 05:16:45 PM 29.7997 -83.4789 160° South 487 560 37,000  Level Jacksonville Center
Thu 05:18:45 PM 29.5369 -83.3653 172° South 487 560 37,000  Level Jacksonville Center
Thu 05:19:45 PM 29.4142 -83.3122 159° South 482 555 37,000  Level Jacksonville Center
Thu 05:20:45 PM 29.2911 -83.2592 159° South 477 549 37,000  Level Jacksonville Center
Thu 05:21:45 PM 29.1681 -83.2089 160° South 472 543 37,000  Level Jacksonville Center
Thu 05:27:10 PM 28.4875 -82.9685 167° South 471 542 37,000  Level FlightAware ADS-B
Thu 05:28:46 PM 28.2787 -82.9339 172° South 472 543 37,000  Level FlightAware ADS-B
Thu 05:29:45 PM 28.1530 -82.9135 171° South 466 536 37,000  Level FlightAware ADS-B
Thu 05:30:39 PM 28.0427 -82.8954 172° South 467 537 37,000  Level FlightAware ADS-B (KEYW)
Thu 05:31:49 PM 27.8886 -82.8829 175° South 456 525 37,000  Level FlightAware ADS-B (KEYW)
Thu 05:32:18 PM 27.8400 -82.8784 175° South 457 526 37,000  Level FlightAware ADS-B (KEYW)
Thu 05:32:32 PM 27.7990 -82.8744 174° South 457 526 37,000  Level FlightAware ADS-B (KEYW)
Thu 05:33:09 PM 27.7225 -82.8670 175° South 454 522 37,000  Level FlightAware ADS-B (KEYW)
Thu 05:33:32 PM 27.6734 -82.8623 175° South 453 521 37,000  Level FlightAware ADS-B (KEYW)
Thu 05:33:55 PM 27.6246 -82.8575 175° South 454 522 37,000  Level FlightAware ADS-B
Thu 05:34:19 PM 27.5772 -82.8529 175° South 452 520 37,000  Level FlightAware ADS-B (KEYW)
Thu 05:34:49 PM 27.5657 -82.8518 175° South 452 520 37,000  Level FlightAware ADS-B (KEYW)
Thu 05:34:53 PM 27.5014 -82.8456 175° South 454 522 37,000  Level FlightAware ADS-B
Thu 05:35:19 PM 27.4518 -82.8408 175° South 453 521 37,000  Level FlightAware ADS-B (KEYW)
Thu 05:35:49 PM 27.3883 -82.8348 175° South 454 522 37,000  Level FlightAware ADS-B (KEYW)
Thu 05:36:18 PM 27.3265 -82.8289 175° South 454 522 37,000  Level FlightAware ADS-B (KEYW)
Thu 05:36:49 PM 27.2603 -82.8226 175° South 453 521 37,000  Level FlightAware ADS-B (KEYW)
Thu 05:37:20 PM 27.1978 -82.8167 175° South 452 520 37,000  Level FlightAware ADS-B (KEYW)
Thu 05:37:49 PM 27.1364 -82.8107 175° South 451 519 37,000  Level FlightAware ADS-B (KEYW)
Thu 05:38:19 PM 27.0741 -82.8047 175° South 452 520 37,000  Level FlightAware ADS-B (KEYW)
Thu 05:38:40 PM 27.0701 -82.8043 175° South 452 520 37,000  Level FlightAware ADS-B (KEYW)
Thu 05:39:20 PM 26.9463 -82.7924 175° South 455 524 37,000  Level FlightAware ADS-B (KEYW)
Thu 05:39:48 PM 26.8882 -82.7869 175° South 455 524 37,000  Level FlightAware ADS-B (KEYW)
Thu 05:40:20 PM 26.8209 -82.7806 175° South 455 524 37,000  Level FlightAware ADS-B (KEYW)
Thu 05:40:50 PM 26.7581 -82.7747 175° South 455 524 37,000  Level FlightAware ADS-B (KEYW)
Thu 05:41:04 PM 26.7501 -82.7740 175° South 455 524 37,000  Level FlightAware ADS-B (KEYW)
Thu 05:41:49 PM 26.6304 -82.7625 175° South 455 524 37,000  Level FlightAware ADS-B (KEYW)
Thu 05:42:11 PM 26.5861 -82.7582 175° South 455 524 37,000  Level FlightAware ADS-B (KEYW)
Thu 05:42:49 PM 26.5034 -82.7504 175° South 456 525 37,000  Level FlightAware ADS-B (KEYW)
Thu 05:43:20 PM 26.4414 -82.7446 175° South 456 525 37,000  Level FlightAware ADS-B (KEYW)
Thu 05:43:49 PM 26.3771 -82.7386 175° South 456 525 37,000  Level FlightAware ADS-B (KEYW)
Thu 05:44:20 PM 26.3149 -82.7327 175° South 457 526 37,000  Level FlightAware ADS-B (KEYW)
Thu 05:44:49 PM 26.2499 -82.7266 175° South 457 526 37,000  Level FlightAware ADS-B (KEYW)
Thu 05:45:19 PM 26.1877 -82.7208 175° South 458 527 37,000  Level FlightAware ADS-B (KEYW)
Thu 05:45:49 PM 26.1263 -82.7149 174° South 458 527 37,000  Level FlightAware ADS-B (KEYW)
Thu 05:46:19 PM 26.0594 -82.7086 175° South 458 527 37,000  Level FlightAware ADS-B (KEYW)
Thu 05:46:50 PM 25.9962 -82.7029 175° South 457 526 37,000  Level FlightAware ADS-B (KEYW)
Thu 05:47:19 PM 25.9331 -82.6970 175° South 456 525 37,000  Level FlightAware ADS-B (KEYW)
Thu 05:47:50 PM 25.8690 -82.6909 175° South 455 524 37,000  Level FlightAware ADS-B (KEYW)
Thu 05:48:19 PM 25.8087 -82.6852 175° South 454 522 37,000  Level FlightAware ADS-B (KEYW)
Thu 05:48:42 PM 25.7595 -82.6806 175° South 454 522 37,000  Level FlightAware ADS-B (KEYW)
Thu 05:49:19 PM 25.6812 -82.6733 175° South 453 521 37,000  Level FlightAware ADS-B (KEYW)
Thu 05:49:45 PM 25.6285 -82.6684 175° South 453 521 37,000  Level FlightAware ADS-B (KEYW)
Thu 05:50:19 PM 25.5557 -82.6617 175° South 452 520 37,000  Level FlightAware ADS-B (KEYW)
Thu 05:50:50 PM 25.4925 -82.6558 175° South 452 520 37,000  Level FlightAware ADS-B (KEYW)
Thu 05:51:19 PM 25.4296 -82.6499 175° South 453 521 37,000  Level FlightAware ADS-B (KEYW)
Thu 05:51:49 PM 25.3722 -82.6446 175° South 454 522 37,000  Level FlightAware ADS-B (KEYW)
Thu 05:52:19 PM 25.3041 -82.6383 175° South 456 525 37,000  Level FlightAware ADS-B (KEYW)
Thu 05:52:50 PM 25.2401 -82.6324 175° South 457 526 37,000  Level FlightAware ADS-B (KEYW)
Thu 05:53:15 PM 25.1856 -82.6274 175° South 456 525 37,000  Level FlightAware ADS-B (KEYW)
Thu 05:53:49 PM 25.1137 -82.6206 175° South 456 525 37,000  Level FlightAware ADS-B (KEYW)
Thu 05:54:24 PM 25.0411 -82.6091 168° South 454 522 37,000  Level FlightAware ADS-B (KEYW)
Thu 05:54:54 PM 24.9790 -82.5914 164° South 452 520 37,000 -873 Level FlightAware ADS-B (KEYW)
Thu 05:55:19 PM 24.9303 -82.5765 164° South 460 529 36,200 -2,000 Descending FlightAware ADS-B (KEYW)
Thu 05:55:54 PM 24.8577 -82.5540 164° South 462 532 35,000 -2,031 Descending FlightAware ADS-B (KEYW)
Thu 05:56:24 PM 24.7942 -82.5340 163° South 466 536 34,000 -2,100 Descending FlightAware ADS-B (KEYW)
Thu 05:56:54 PM 24.7323 -82.5142 163° South 470 541 32,900 -2,100 Descending FlightAware ADS-B (KEYW)
Thu 05:57:24 PM 24.6689 -82.4939 163° South 475 547 31,900 -2,057 Descending FlightAware ADS-B (KEYW)
Thu 05:58:04 PM 24.5857 -82.4675 163° South 480 552 30,500 -2,057 Descending FlightAware ADS-B (KEYW)
Thu 05:58:34 PM 24.5206 -82.4465 164° South 474 545 29,500 -2,100 Descending FlightAware ADS-B (KEYW)
Thu 05:59:04 PM 24.4558 -82.4330 172° South 466 536 28,400 -2,066 Descending FlightAware ADS-B (KEYW)
Thu 05:59:35 PM 24.3919 -82.4251 176° South 455 524 27,400 -2,100 Descending FlightAware ADS-B (KEYW)
Thu 06:00:04 PM 24.3283 -82.4262 185° South 451 519 26,300 -1,900 Descending FlightAware ADS-B (KEYW)
Thu 06:00:35 PM 24.2675 -82.4402 196° South 446 513 25,500 -1,200 Descending FlightAware ADS-B (KEYW)
Thu 06:01:04 PM 24.2123 -82.4565 195° South 443 510 25,100 -1,017 Descending FlightAware ADS-B (KEYW)
Thu 06:01:34 PM 24.1487 -82.4750 196° South 442 509 24,500 -1,600 Descending FlightAware ADS-B (KEYW)
Thu 06:02:04 PM 24.0913 -82.4919 196° South 439 505 23,500 -2,000 Descending FlightAware ADS-B (KEYW)
Thu 06:02:34 PM 24.0305 -82.5097 195° South 434 499 22,500 -1,500 Descending FlightAware ADS-B (KEYW)
Thu 06:03:04 PM 23.9719 -82.5211 188° South 427 491 22,000 -1,015 Descending FlightAware ADS-B (KEYW)
Thu 06:03:39 PM 23.9034 -82.5278 186° South 428 493 21,400 -2,400 Descending FlightAware ADS-B (KEYW)
Thu 06:04:09 PM 23.8415 -82.5344 186° South 445 512 19,400 -3,086 Descending FlightAware ADS-B (KEYW)
Thu 06:04:49 PM 23.7603 -82.5430 186° South 436 502 17,800 -2,261 Descending FlightAware ADS-B (KEYW)
Thu 06:05:18 PM 23.7038 -82.5486 186° South 427 491 16,800 -2,066 Descending FlightAware ADS-B (KEYW)
Thu 06:05:50 PM 23.6420 -82.5546 186° South 419 482 15,700 -2,000 Descending FlightAware ADS-B (KEYW)
Thu 06:06:18 PM 23.5879 -82.5600 186° South 411 473 14,800 -2,034 Descending FlightAware ADS-B (KEYW)
Thu 06:06:49 PM 23.5286 -82.5660 186° South 402 463 13,700 -2,066 Descending FlightAware ADS-B (KEYW)
Thu 06:07:19 PM 23.4735 -82.5715 186° South 395 455 12,700 -1,900 Descending FlightAware ADS-B (KEYW)
Thu 06:07:49 PM 23.4195 -82.5768 186° South 388 447 11,800 -1,300 Descending FlightAware ADS-B (KEYW)
Thu 06:08:19 PM 23.3661 -82.5821 186° South 367 422 11,400 -700 Descending FlightAware ADS-B (KEYW)
Thu 06:08:49 PM 23.3174 -82.5869 186° South 346 398 11,100 -600 Descending FlightAware ADS-B (KEYW)
Thu 06:09:19 PM 23.2711 -82.5916 186° South 326 375 10,800 -1,200 Descending FlightAware ADS-B (KEYW)
Thu 06:09:49 PM 23.2278 -82.5960 186° South 300 345 9,900 -2,133 Descending FlightAware ADS-B (KEYW)
Thu 06:10:04 PM 23.2071 -82.5981 186° South 298 343 9,200 -2,512 Descending FlightAware ADS-B (KEYW)
Thu 06:10:32 PM 23.1706 -82.6017 186° South 297 342 8,100 -2,478 Descending FlightAware ADS-B (KEYW)
Thu 06:10:50 PM 23.1460 -82.6044 187° South 288 331 7,300 -2,545 Descending FlightAware ADS-B (KEYW)
Thu 06:11:05 PM 23.1262 -82.6068 187° South 286 329 6,700 -2,276 Descending FlightAware ADS-B (KEYW)
Thu 06:11:19 PM 23.1065 -82.6092 187° South 281 323 6,200 -1,241 Descending FlightAware ADS-B (KEYW)
Thu 06:11:34 PM 23.0876 -82.6114 187° South 266 306 6,100 -200 Descending FlightAware ADS-B (KEYW)
Thu 06:11:49 PM 23.0711 -82.6133 187° South 258 297 6,100 -400 Level FlightAware ADS-B (KEYW)
Thu 06:12:04 PM 23.0518 -82.6156 187° South 252 290 5,900 -1,200 Descending FlightAware ADS-B (KEYW)
Thu 06:12:19 PM 23.0348 -82.6177 187° South 249 287 5,500 -1,548 Descending FlightAware ADS-B (KEYW)
Thu 06:12:35 PM 23.0193 -82.6195 187° South 243 280 5,100 -1,500 Descending FlightAware ADS-B (KEYW)
Thu 06:15:00 PM 22.9891 -82.4091 99° East  Level Estimated
Thu 06:16:00 PM 22.9891 -82.4091 180° South  Level Estimated
Thu 06:17:00 PM 22.9891 -82.4091 180° South  Level Estimated
Thu 06:18:00 PM 22.9891 -82.4091 180° South  Level Estimated
Thu 06:19:00 PM 22.9891 -82.4091 180° South  Level Estimated
Thu 06:20:00 PM 22.9891 -82.4091 180° South  Level Estimated
Thu 06:21:00 PM 22.9891 -82.4091 180° South  Level Estimated
Thu 06:22:00 PM 22.9891 -82.4091 180° South  Level Estimated
Thu 06:23:00 PM 22.9891 -82.4091 180° South  Level Estimated
Thu 06:24:00 PM 22.9891 -82.4091 180° South  Level Estimated
Thu 06:25:00 PM 22.9891 -82.4091 180° South  Level Estimated
Thu 06:26:00 PM 22.9891 -82.4091 180° South  Level Estimated
Thu 06:27:00 PM 22.9891 -82.4091 180° South  Level Estimated
Thu 06:28:00 PM 22.9891 -82.4091 180° South  Level Estimated
Thu 06:29:00 PM 22.9891 -82.4091 180° South  Level Estimated
Thu 06:30:00 PM 22.9891 -82.4091 180° South  Level Estimated
Thu 06:31:00 PM 22.9891 -82.4091 180° South  Level Estimated
Thu 06:32:00 PM 22.9891 -82.4091 180° South  Level Estimated
Thu 06:33:00 PM 22.9891 -82.4091 180° South  Level Estimated
Thu 06:34:00 PM 22.9891 -82.4091 180° South  Level Estimated

Login

Don't have an account? Register now (free) for customized features, flight alerts, and more!